createdAt,value
2022-11-18T00:00:09.279Z,1.40
2022-11-18T00:02:37.545Z,2.20
2022-11-18T00:05:06.112Z,1.50
2022-11-18T00:07:34.351Z,1.50
2022-11-18T00:10:02.543Z,1.77
2022-11-18T00:12:49.668Z,2.13
2022-11-18T00:15:17.968Z,1.50
2022-11-18T00:17:46.126Z,1.60
2022-11-18T00:20:14.301Z,1.70
2022-11-18T00:22:42.495Z,1.60
2022-11-18T00:25:10.828Z,2.10
2022-11-18T00:27:40.372Z,1.60
2022-11-18T00:30:09.240Z,1.50
2022-11-18T00:32:37.408Z,1.90
2022-11-18T00:35:05.781Z,1.50
2022-11-18T00:37:33.970Z,1.60
2022-11-18T00:40:02.126Z,1.90
2022-11-18T00:42:48.219Z,1.90
2022-11-18T00:45:17.816Z,1.60
2022-11-18T00:47:45.975Z,1.53
2022-11-18T00:50:14.449Z,1.33
2022-11-18T00:52:42.641Z,1.70
2022-11-18T00:55:11.170Z,1.90
2022-11-18T00:57:39.346Z,1.60
2022-11-18T01:00:08.119Z,2.00
2022-11-18T01:02:37.691Z,1.50
2022-11-18T01:05:06.128Z,1.70
2022-11-18T01:07:34.368Z,1.33
2022-11-18T01:10:02.578Z,1.57
2022-11-18T01:12:53.960Z,1.40
2022-11-18T01:15:22.549Z,1.70
2022-11-18T01:17:52.052Z,1.40
2022-11-18T01:20:20.228Z,1.73
2022-11-18T01:22:48.384Z,1.63
2022-11-18T01:25:16.633Z,1.60
2022-11-18T01:27:44.800Z,1.60
2022-11-18T01:30:13.555Z,1.80
2022-11-18T01:32:41.708Z,1.60
2022-11-18T01:35:11.927Z,1.63
2022-11-18T01:37:40.360Z,1.40
2022-11-18T01:40:09.751Z,1.50
2022-11-18T01:42:37.962Z,1.30
2022-11-18T01:45:10.460Z,1.50
2022-11-18T01:47:42.383Z,1.50
2022-11-18T01:50:12.456Z,1.60
2022-11-18T01:52:41.638Z,1.50
2022-11-18T01:55:12.695Z,1.43
2022-11-18T01:57:41.092Z,1.20
2022-11-18T02:00:11.849Z,1.70
2022-11-18T02:02:40.391Z,1.47
2022-11-18T02:05:10.582Z,1.67
2022-11-18T02:07:42.813Z,1.80
2022-11-18T02:10:11.953Z,1.50
2022-11-18T02:12:40.236Z,1.30
2022-11-18T02:15:09.021Z,1.70
2022-11-18T02:17:43.504Z,2.07
2022-11-18T02:20:20.594Z,1.60
2022-11-18T02:22:57.851Z,2.00
2022-11-18T02:25:33.320Z,1.40
2022-11-18T02:28:17.884Z,1.43
2022-11-18T02:30:49.968Z,1.93
2022-11-18T02:33:20.008Z,1.50
2022-11-18T02:35:49.107Z,1.50
2022-11-18T02:38:21.225Z,1.30
2022-11-18T02:40:51.616Z,2.03
2022-11-18T02:43:21.632Z,1.50
2022-11-18T02:45:53.754Z,1.43
2022-11-18T02:48:23.958Z,1.63
2022-11-18T02:50:52.970Z,1.47
2022-11-18T02:53:22.208Z,1.53
2022-11-18T02:55:51.445Z,1.43
2022-11-18T02:58:20.656Z,1.47
2022-11-18T03:00:56.028Z,1.60
2022-11-18T03:03:28.460Z,1.67
2022-11-18T03:06:04.024Z,1.57
2022-11-18T03:08:34.714Z,1.47
2022-11-18T03:11:05.403Z,1.70
2022-11-18T03:13:36.453Z,1.90
2022-11-18T03:16:08.169Z,1.90
2022-11-18T03:18:41.138Z,1.40
2022-11-18T03:21:11.807Z,2.23
2022-11-18T03:23:41.322Z,1.77
2022-11-18T03:26:11.698Z,1.63
2022-11-18T03:28:42.683Z,1.37
2022-11-18T03:31:14.085Z,2.13
2022-11-18T03:33:44.391Z,1.90
2022-11-18T03:36:14.597Z,1.80
2022-11-18T03:38:45.613Z,1.90
2022-11-18T03:41:14.357Z,1.63
2022-11-18T03:43:45.725Z,2.23
2022-11-18T03:46:17.117Z,1.83
2022-11-18T03:48:48.525Z,2.00
2022-11-18T03:51:19.083Z,2.03
2022-11-18T03:53:49.731Z,1.80
2022-11-18T03:56:19.923Z,2.10
2022-11-18T03:58:51.385Z,2.10
2022-11-18T04:01:23.287Z,1.90
2022-11-18T04:03:51.527Z,2.00
2022-11-18T04:06:23.305Z,2.37
2022-11-18T04:08:54.307Z,1.90
2022-11-18T04:11:43.733Z,2.00
2022-11-18T04:14:12.921Z,2.07
2022-11-18T04:16:43.316Z,1.93
2022-11-18T04:19:11.713Z,2.20
2022-11-18T04:21:39.888Z,3.00
2022-11-18T04:24:08.311Z,1.70
2022-11-18T04:26:36.473Z,2.47
2022-11-18T04:29:04.695Z,2.00
2022-11-18T04:31:32.855Z,1.80
2022-11-18T04:34:02.400Z,2.00
2022-11-18T04:36:30.551Z,2.20
2022-11-18T04:38:58.762Z,2.27
2022-11-18T04:41:46.903Z,2.13
2022-11-18T04:44:15.083Z,2.30
2022-11-18T04:46:43.556Z,2.40
2022-11-18T04:49:14.177Z,2.23
2022-11-18T04:51:42.707Z,2.23
2022-11-18T04:54:11.306Z,2.20
2022-11-18T04:56:44.110Z,2.47
2022-11-18T04:59:16.493Z,2.50
2022-11-18T05:01:44.845Z,2.30
2022-11-18T05:04:15.402Z,2.23
2022-11-18T05:06:43.748Z,2.93
2022-11-18T05:09:12.052Z,1.97
2022-11-18T05:11:57.752Z,2.50
2022-11-18T05:14:27.126Z,2.30
2022-11-18T05:16:55.692Z,2.17
2022-11-18T05:19:25.431Z,2.17
2022-11-18T05:21:53.802Z,2.30
2022-11-18T05:24:24.018Z,2.30
2022-11-18T05:26:52.548Z,2.37
2022-11-18T05:29:20.946Z,2.37
2022-11-18T05:31:49.432Z,2.47
2022-11-18T05:34:17.644Z,2.30
2022-11-18T05:36:47.339Z,2.00
2022-11-18T05:39:15.887Z,2.50
2022-11-18T05:42:02.007Z,2.07
2022-11-18T05:44:30.199Z,2.10
2022-11-18T05:46:58.387Z,2.13
2022-11-18T05:49:26.636Z,2.57
2022-11-18T05:51:56.176Z,2.40
2022-11-18T05:54:24.613Z,2.23
2022-11-18T05:56:52.996Z,2.40
2022-11-18T05:59:21.362Z,3.17
2022-11-18T06:01:52.619Z,2.27
2022-11-18T06:04:23.843Z,2.90
2022-11-18T06:06:54.355Z,2.67
2022-11-18T06:09:25.679Z,2.20
2022-11-18T06:11:54.923Z,3.00
2022-11-18T06:14:25.216Z,2.93
2022-11-18T06:16:55.360Z,2.97
2022-11-18T06:19:24.216Z,3.10
2022-11-18T06:21:52.624Z,3.03
2022-11-18T06:24:20.909Z,2.77
2022-11-18T06:26:50.657Z,2.97
2022-11-18T06:29:24.567Z,2.77
2022-11-18T06:31:55.769Z,2.67
2022-11-18T06:34:24.000Z,3.03
2022-11-18T06:36:52.167Z,2.90
2022-11-18T06:39:20.748Z,3.23
2022-11-18T06:41:50.407Z,2.80
2022-11-18T06:44:17.627Z,3.07
2022-11-18T06:46:58.228Z,2.87
2022-11-18T06:49:26.773Z,3.27
2022-11-18T06:51:55.272Z,3.23
2022-11-18T06:54:23.689Z,3.20
2022-11-18T06:56:53.193Z,3.63
2022-11-18T06:59:24.368Z,4.57
2022-11-18T07:01:53.319Z,2.90
2022-11-18T07:04:21.787Z,2.57
2022-11-18T07:06:49.968Z,2.83
2022-11-18T07:09:18.380Z,3.10
2022-11-18T07:11:46.739Z,3.27
2022-11-18T07:14:16.259Z,2.87
2022-11-18T07:16:44.447Z,3.20
2022-11-18T07:19:13.289Z,3.10
2022-11-18T07:21:42.580Z,2.90
2022-11-18T07:24:11.501Z,3.27
2022-11-18T07:26:39.673Z,3.43
2022-11-18T07:29:07.975Z,3.23
2022-11-18T07:31:39.559Z,2.93
2022-11-18T07:34:08.043Z,3.13
2022-11-18T07:36:36.377Z,3.53
2022-11-18T07:39:05.646Z,2.73
2022-11-18T07:41:34.343Z,2.80
2022-11-18T07:44:03.190Z,2.60
2022-11-18T07:46:32.411Z,2.80
2022-11-18T07:49:02.520Z,2.73
2022-11-18T07:51:31.816Z,2.63
2022-11-18T07:53:59.989Z,2.67
2022-11-18T07:56:28.192Z,2.90
2022-11-18T07:58:57.140Z,2.83
2022-11-18T08:01:28.824Z,2.83
2022-11-18T08:03:58.520Z,2.43
2022-11-18T08:06:28.111Z,2.57
2022-11-18T08:08:56.287Z,2.60
2022-11-18T08:11:24.465Z,2.70
2022-11-18T08:13:53.108Z,2.83
2022-11-18T08:16:22.325Z,2.47
2022-11-18T08:18:51.008Z,2.37
2022-11-18T08:21:20.263Z,2.40
2022-11-18T08:23:52.402Z,2.23
2022-11-18T08:26:20.636Z,2.40
2022-11-18T08:28:48.910Z,2.63
2022-11-18T08:31:18.171Z,2.83
2022-11-18T08:33:46.363Z,1.93
2022-11-18T08:36:16.846Z,2.07
2022-11-18T08:38:45.064Z,2.20
2022-11-18T08:41:15.267Z,2.10
2022-11-18T08:43:43.512Z,2.10
2022-11-18T08:46:12.324Z,1.90
2022-11-18T08:48:40.504Z,1.87
2022-11-18T08:51:11.059Z,2.23
2022-11-18T08:53:39.272Z,1.90
2022-11-18T08:56:07.595Z,2.03
2022-11-18T08:58:37.101Z,2.43
2022-11-18T09:01:06.685Z,1.93
2022-11-18T09:03:35.103Z,2.00
2022-11-18T09:06:07.066Z,2.03
2022-11-18T09:08:35.270Z,2.30
2022-11-18T09:11:06.496Z,1.60
2022-11-18T09:13:56.254Z,1.67
2022-11-18T09:16:27.894Z,1.63
2022-11-18T09:18:56.727Z,2.23
2022-11-18T09:21:25.196Z,2.00
2022-11-18T09:23:53.555Z,1.80
2022-11-18T09:26:22.668Z,1.63
2022-11-18T09:28:51.427Z,2.00
2022-11-18T09:31:19.884Z,2.37
2022-11-18T09:33:49.421Z,2.03
2022-11-18T09:36:19.089Z,1.40
2022-11-18T09:38:51.623Z,2.37
2022-11-18T09:41:26.106Z,2.33
2022-11-18T09:43:59.819Z,1.97
2022-11-18T09:46:31.755Z,1.90
2022-11-18T09:49:16.411Z,1.73
2022-11-18T09:51:46.397Z,2.13
2022-11-18T09:54:16.582Z,1.90
2022-11-18T09:56:45.252Z,1.90
2022-11-18T09:59:15.352Z,1.60
2022-11-18T10:01:43.733Z,2.07
2022-11-18T10:04:17.383Z,1.60
2022-11-18T10:06:46.392Z,1.63
2022-11-18T10:09:25.797Z,1.87
2022-11-18T10:11:59.099Z,1.90
2022-11-18T10:14:31.165Z,1.80
2022-11-18T10:17:02.280Z,1.53
2022-11-18T10:19:34.229Z,1.60
2022-11-18T10:22:16.839Z,1.90
2022-11-18T10:24:50.975Z,2.33
2022-11-18T10:27:19.490Z,1.80
2022-11-18T10:29:50.050Z,1.77
2022-11-18T10:32:21.318Z,1.50
2022-11-18T10:34:51.554Z,1.80
2022-11-18T10:37:45.363Z,1.97
2022-11-18T10:40:26.949Z,1.80
2022-11-18T10:42:55.508Z,1.43
2022-11-18T10:45:26.777Z,1.83
2022-11-18T10:48:02.364Z,1.60
2022-11-18T10:50:33.491Z,1.60
2022-11-18T10:53:02.071Z,1.57
2022-11-18T10:55:30.396Z,1.50
2022-11-18T10:58:01.312Z,1.63
2022-11-18T11:00:37.151Z,1.80
2022-11-18T11:03:17.395Z,2.07
2022-11-18T11:05:46.942Z,1.53
2022-11-18T11:08:36.576Z,1.90
2022-11-18T11:11:05.760Z,1.80
2022-11-18T11:13:34.261Z,1.60
2022-11-18T11:16:04.204Z,1.50
2022-11-18T11:18:43.634Z,1.83
2022-11-18T11:21:14.392Z,1.70
2022-11-18T11:23:42.942Z,1.53
2022-11-18T11:29:07.885Z,1.53
2022-11-18T11:31:40.763Z,1.67
2022-11-18T11:34:13.493Z,1.67
2022-11-18T11:36:47.437Z,1.70
2022-11-18T11:39:34.248Z,2.10
2022-11-18T11:42:07.069Z,1.50
2022-11-18T11:44:41.139Z,2.13
2022-11-18T11:47:32.545Z,2.53
2022-11-18T11:50:03.332Z,1.83
2022-11-18T11:52:39.852Z,1.93
2022-11-18T11:55:12.944Z,1.47
2022-11-18T11:57:46.941Z,2.23
2022-11-18T12:00:16.406Z,1.83
2022-11-18T12:03:05.857Z,2.00
2022-11-18T12:05:36.672Z,1.77
2022-11-18T12:08:11.033Z,1.70
2022-11-18T12:10:43.363Z,1.77
2022-11-18T12:13:15.741Z,1.60
2022-11-18T12:15:49.882Z,1.37
2022-11-18T12:18:22.260Z,1.23
2022-11-18T12:20:52.287Z,1.40
2022-11-18T12:23:23.612Z,2.00
2022-11-18T12:25:56.795Z,1.73
2022-11-18T12:28:26.428Z,1.80
2022-11-18T12:31:09.486Z,1.40
2022-11-18T12:33:43.668Z,1.40
2022-11-18T12:36:11.821Z,1.50
2022-11-18T12:38:41.375Z,1.70
2022-11-18T12:41:59.301Z,2.17
2022-11-18T12:44:30.053Z,1.80
2022-11-18T12:46:58.539Z,1.93
2022-11-18T12:49:45.127Z,1.40
2022-11-18T12:52:28.188Z,2.03
2022-11-18T12:54:56.882Z,1.57
2022-11-18T12:57:25.897Z,2.00
2022-11-18T12:59:55.418Z,1.53
2022-11-18T13:02:25.006Z,1.80
2022-11-18T13:05:06.981Z,1.80
2022-11-18T13:07:54.085Z,1.40
2022-11-18T13:10:24.261Z,1.30
2022-11-18T13:12:53.260Z,1.53
2022-11-18T13:15:40.673Z,1.73
2022-11-18T13:18:13.130Z,1.40
2022-11-18T13:20:42.200Z,2.07
2022-11-18T13:23:43.495Z,1.63
2022-11-18T13:26:14.420Z,1.97
2022-11-18T13:28:46.744Z,2.30
2022-11-18T13:31:19.479Z,1.83
2022-11-18T13:33:47.678Z,1.57
2022-11-18T13:36:19.822Z,1.43
2022-11-18T13:38:56.772Z,1.60
2022-11-18T13:41:32.500Z,1.77
2022-11-18T13:44:12.267Z,1.43
2022-11-18T13:46:42.874Z,1.50
2022-11-18T13:49:15.383Z,1.30
2022-11-18T13:51:44.270Z,1.23
2022-11-18T13:54:13.449Z,1.40
2022-11-18T13:56:41.949Z,1.50
2022-11-18T13:59:18.009Z,1.53
2022-11-18T14:01:48.425Z,1.40
2022-11-18T14:04:19.589Z,2.13
2022-11-18T14:06:47.862Z,1.50
2022-11-18T14:09:21.501Z,1.33
2022-11-18T14:11:59.989Z,1.50
2022-11-18T14:14:32.647Z,1.20
2022-11-18T14:17:16.673Z,1.13
2022-11-18T14:19:45.173Z,1.37
2022-11-18T14:22:15.295Z,1.10
2022-11-18T14:24:43.925Z,1.40
2022-11-18T14:27:36.302Z,1.40
2022-11-18T14:30:23.277Z,1.30
2022-11-18T14:33:10.774Z,1.50
2022-11-18T14:35:39.147Z,1.33
2022-11-18T14:38:36.541Z,1.63
2022-11-18T14:41:03.229Z,1.37
2022-11-18T14:43:32.253Z,1.80
2022-11-18T14:46:01.365Z,1.87
2022-11-18T14:48:32.747Z,1.50
2022-11-18T14:51:01.334Z,1.47
2022-11-18T14:53:29.511Z,1.40
2022-11-18T14:55:58.856Z,1.57
2022-11-18T14:58:27.034Z,1.70
2022-11-18T15:00:55.310Z,1.63
2022-11-18T15:03:24.148Z,1.60
2022-11-18T15:05:53.786Z,1.53
2022-11-18T15:08:21.953Z,1.73
2022-11-18T15:10:50.234Z,1.53
2022-11-18T15:13:18.377Z,1.70
2022-11-18T15:15:46.556Z,1.80
2022-11-18T15:18:14.753Z,1.77
2022-11-18T15:20:42.921Z,1.70
2022-11-18T15:23:12.517Z,2.20
2022-11-18T15:25:40.771Z,2.00
2022-11-18T15:28:11.320Z,1.70
2022-11-18T15:30:39.492Z,1.90
2022-11-18T15:33:07.693Z,2.00
2022-11-18T15:35:35.842Z,1.97
2022-11-18T15:38:04.097Z,2.00
2022-11-18T15:40:33.704Z,2.30
2022-11-18T15:43:04.875Z,1.60
2022-11-18T15:45:33.038Z,1.60
2022-11-18T15:48:01.199Z,1.57
2022-11-18T15:50:29.376Z,1.70
2022-11-18T15:52:57.534Z,2.10
2022-11-18T15:55:25.681Z,1.80
2022-11-18T15:57:55.217Z,2.00
2022-11-18T16:00:23.458Z,1.97
2022-11-18T16:02:51.843Z,2.10
2022-11-18T16:05:20.019Z,1.70
2022-11-18T16:07:54.339Z,1.87
2022-11-18T16:10:40.588Z,2.23
2022-11-18T16:13:10.079Z,2.10
2022-11-18T16:15:48.113Z,1.70
2022-11-18T16:18:17.850Z,2.93
2022-11-18T16:20:45.982Z,1.63
2022-11-18T16:23:14.222Z,1.90
2022-11-18T16:25:46.044Z,1.90
2022-11-18T16:28:16.456Z,1.77
2022-11-18T16:31:15.665Z,1.90
2022-11-18T16:33:43.859Z,1.90
2022-11-18T16:36:12.032Z,1.90
2022-11-18T16:38:40.198Z,2.10
2022-11-18T16:41:29.388Z,2.10
2022-11-18T16:43:59.703Z,1.80
2022-11-18T16:46:27.897Z,1.97
2022-11-18T16:48:57.375Z,2.03
2022-11-18T16:51:26.803Z,1.77
2022-11-18T16:53:55.642Z,1.63
2022-11-18T16:56:24.629Z,1.80
2022-11-18T16:58:57.208Z,2.10
2022-11-18T17:01:29.626Z,1.63
2022-11-18T17:04:00.509Z,1.73
2022-11-18T17:06:29.135Z,2.20
2022-11-18T17:08:57.404Z,2.00
2022-11-18T17:11:25.655Z,2.00
2022-11-18T17:13:57.981Z,1.83
2022-11-18T17:16:28.093Z,2.17
2022-11-18T17:18:57.208Z,2.13
2022-11-18T17:21:25.780Z,2.27
2022-11-18T17:23:53.927Z,2.90
2022-11-18T17:26:22.927Z,3.33
2022-11-18T17:28:51.699Z,3.70
2022-11-18T17:31:20.698Z,5.20
2022-11-18T17:33:50.869Z,4.50
2022-11-18T17:36:20.950Z,3.93
2022-11-18T17:38:49.905Z,4.20
2022-11-18T17:41:32.594Z,5.77
2022-11-18T17:44:00.762Z,3.07
2022-11-18T17:46:32.148Z,3.07
2022-11-18T17:49:07.083Z,3.00
2022-11-18T17:51:35.354Z,2.87
2022-11-18T17:54:03.547Z,2.97
2022-11-18T17:56:31.725Z,2.50
2022-11-18T17:58:59.986Z,2.30
2022-11-18T18:01:28.281Z,2.60
2022-11-18T18:03:56.474Z,2.50
2022-11-18T18:06:26.778Z,2.30
2022-11-18T18:08:57.236Z,2.30
2022-11-18T18:11:27.864Z,2.30
2022-11-18T18:14:13.188Z,2.97
2022-11-18T18:16:43.101Z,2.70
2022-11-18T18:19:12.198Z,2.60
2022-11-18T18:21:41.770Z,2.70
2022-11-18T18:24:10.658Z,2.60
2022-11-18T18:26:39.365Z,2.83
2022-11-18T18:29:07.622Z,2.70
2022-11-18T18:31:36.654Z,2.60
2022-11-18T18:34:05.263Z,2.63
2022-11-18T18:36:33.495Z,2.97
2022-11-18T18:39:03.019Z,2.93
2022-11-18T18:41:32.230Z,3.10
2022-11-18T18:44:00.548Z,2.90
2022-11-18T18:46:32.253Z,2.77
2022-11-18T18:49:01.966Z,2.20
2022-11-18T18:51:31.215Z,2.00
2022-11-18T18:53:59.702Z,2.00
2022-11-18T18:56:29.388Z,2.30
2022-11-18T18:58:57.943Z,1.87
2022-11-18T19:01:26.776Z,1.80
2022-11-18T19:03:56.020Z,2.23
2022-11-18T19:09:14.491Z,1.70
2022-11-18T19:12:01.599Z,2.00
2022-11-18T19:14:30.081Z,2.10
2022-11-18T19:16:58.490Z,2.13
2022-11-18T19:19:41.523Z,2.23
2022-11-18T19:22:10.164Z,2.60
2022-11-18T19:24:54.417Z,2.30
2022-11-18T19:27:24.568Z,1.87
2022-11-18T19:29:52.884Z,2.30
2022-11-18T19:32:21.108Z,2.10
2022-11-18T19:34:49.269Z,2.30
2022-11-18T19:37:17.449Z,2.23
2022-11-18T19:39:45.590Z,2.50
2022-11-18T19:42:13.760Z,2.63
2022-11-18T19:44:43.293Z,3.37
2022-11-18T19:47:11.514Z,3.30
2022-11-18T19:49:39.734Z,3.53
2022-11-18T19:52:07.932Z,3.40
2022-11-18T19:54:36.093Z,4.23
2022-11-18T19:57:04.311Z,4.03
2022-11-18T19:59:32.546Z,3.87
2022-11-18T20:02:02.226Z,6.47
2022-11-18T20:04:30.378Z,11.07
2022-11-18T20:06:58.632Z,7.30
2022-11-18T20:09:26.895Z,8.40
2022-11-18T20:11:55.786Z,4.97
2022-11-18T20:14:23.958Z,6.10
2022-11-18T20:16:52.529Z,4.80
2022-11-18T20:19:22.410Z,4.83
2022-11-18T20:21:50.826Z,6.13
2022-11-18T20:24:20.010Z,6.70
2022-11-18T20:26:48.611Z,6.57
2022-11-18T20:29:17.361Z,4.70
2022-11-18T20:31:45.765Z,4.33
2022-11-18T20:34:14.842Z,5.13
2022-11-18T20:36:46.342Z,4.23
2022-11-18T20:39:15.671Z,4.00
2022-11-18T20:42:03.900Z,4.10
2022-11-18T20:44:32.052Z,3.90
2022-11-18T20:47:00.258Z,4.43
2022-11-18T20:49:28.409Z,4.50
2022-11-18T20:51:58.037Z,4.47
2022-11-18T20:54:26.551Z,4.97
2022-11-18T20:56:54.725Z,5.27
2022-11-18T20:59:22.915Z,4.60
2022-11-18T21:01:51.097Z,4.37
2022-11-18T21:04:19.243Z,5.40
2022-11-18T21:06:47.754Z,4.90
2022-11-18T21:09:17.987Z,5.93
2022-11-18T21:11:46.496Z,5.00
2022-11-18T21:14:24.784Z,5.70
2022-11-18T21:16:53.984Z,5.70
2022-11-18T21:19:22.577Z,5.30
2022-11-18T21:21:52.043Z,5.10
2022-11-18T21:24:22.837Z,4.63
2022-11-18T21:26:51.900Z,5.37
2022-11-18T21:29:20.565Z,5.27
2022-11-18T21:31:49.190Z,5.57
2022-11-18T21:34:18.064Z,5.57
2022-11-18T21:36:50.376Z,5.30
2022-11-18T21:39:23.842Z,5.27
2022-11-18T21:41:56.305Z,5.40
2022-11-18T21:44:25.523Z,6.13
2022-11-18T21:46:53.750Z,5.90
2022-11-18T21:49:22.541Z,6.30
2022-11-18T21:51:51.122Z,5.90
2022-11-18T21:54:19.351Z,6.10
2022-11-18T21:56:49.261Z,6.40
2022-11-18T21:59:17.630Z,5.90
2022-11-18T22:01:45.994Z,6.20
2022-11-18T22:04:34.143Z,5.40
2022-11-18T22:07:02.336Z,5.73
2022-11-18T22:09:36.159Z,6.33
2022-11-18T22:12:06.419Z,6.30
2022-11-18T22:14:34.602Z,5.00
2022-11-18T22:17:02.754Z,5.60
2022-11-18T22:19:31.204Z,4.53
2022-11-18T22:21:59.473Z,5.20
2022-11-18T22:24:27.660Z,4.90
2022-11-18T22:26:55.841Z,4.40
2022-11-18T22:29:26.069Z,4.63
2022-11-18T22:31:54.304Z,4.10
2022-11-18T22:34:22.514Z,4.03
2022-11-18T22:36:50.680Z,3.80
2022-11-18T22:39:19.351Z,4.27
2022-11-18T22:42:05.201Z,4.27
2022-11-18T22:44:34.738Z,4.37
2022-11-18T22:47:02.923Z,3.97
2022-11-18T22:49:31.079Z,4.30
2022-11-18T22:51:59.273Z,4.23
2022-11-18T22:54:42.685Z,4.30
2022-11-18T22:57:11.072Z,3.93
2022-11-18T22:59:40.597Z,4.40
2022-11-18T23:02:08.760Z,4.50
2022-11-18T23:04:36.943Z,4.30
2022-11-18T23:07:05.482Z,4.17
2022-11-18T23:09:33.664Z,4.87
2022-11-18T23:12:19.351Z,4.53
2022-11-18T23:14:48.889Z,4.93
2022-11-18T23:17:17.105Z,4.83
2022-11-18T23:19:46.829Z,4.87
2022-11-18T23:22:15.359Z,5.20
2022-11-18T23:24:43.832Z,5.27
2022-11-18T23:27:12.010Z,5.90
2022-11-18T23:29:40.163Z,5.63
2022-11-18T23:32:09.687Z,5.73
2022-11-18T23:34:37.889Z,6.20
2022-11-18T23:37:06.066Z,6.70
2022-11-18T23:39:34.606Z,6.53
2022-11-18T23:42:02.778Z,7.47
2022-11-18T23:44:46.046Z,7.33
2022-11-18T23:47:15.592Z,7.83
2022-11-18T23:49:43.757Z,8.57
2022-11-18T23:52:12.655Z,8.60
2022-11-18T23:54:40.806Z,9.37
2022-11-18T23:57:08.962Z,10.27
2022-11-18T23:59:37.194Z,10.03
